Birch River, WV (26610)

6:41 AM EST on December 26, 2014 (GMT -0500)
Frame Circle | Change Station
CLOSE
Current Station
Personal Weather Station
Location: Gassaway, WV
Elevation: 890 ft
Nearby Weather Stations

Elev 890 ft 38.66 °N, 80.75 °W | Updated 0 second ago

Clear
Clear
26.7 °F
Feels Like 27 °F
N
0.0
Wind Variable Wind from NE
Gusts 1.0 mph

Today
High -- | Low -- °F
--% Chance of Precip.
Yesterday
High -- | Low -- °F
Precip. -- in
7:38 AM 5:08 PM
Waxing Crescent, 25% visible
Pressure 30.25 in
Visibility 10.0 miles
Clouds Clear
Windchill 27 °F
Dew Point 25 °F
Humidity 94%
Rainfall 0.00 in
Snow Depth Not available.
UV 0 out of 12
Pollen .10 out of 12
Air Quality Not available.
Flu Activity Not available.
METAR KW22 261115Z AUTO 00000KT 10SM CLR M01/M01 A3025 RMK AO2

More Conditions Fewer Conditions

Pressure 30.25 in
Visibility 10.0 miles
Clouds Clear
Windchill 27 °F
Dew Point 25 °F
Humidity 94%
Rainfall 0.00 in
Snow Depth Not available.
UV 0 out of 12
Pollen .10 out of 12
Air Quality Not available.
Flu Activity Not available.
METAR KW22 261115Z AUTO 00000KT 10SM CLR M01/M01 A3025 RMK AO2

More Conditions Fewer Conditions

10-Day Weather Forecast

Almanac

Astronomy

Dec. 26, 2014 Rise Set
Actual Time
Civil Twilight
Nautical Twilight
Astronomical Twilight
Moon
Length of Visible Light
Length of Day
Tomorrow will be .
, % of the Moon is Illuminated

Today's Extremes

State Highs State Lows

Community

WunderPhotos

Upload Photos

1,780,580 photos uploaded!

WunderBlogs® & News

Nearby

Air Quality

  Air Quality AQ Index Pollutant
Not available.

Snow Depth

Station Depth Elevation

Earthquake Activity

City Distance Mag. Time & Date
Minimum magnitude displayed is 2.5.

Coastal Water Temperatures

Place Temperature

Nearby Weather Stations